createdAt,value
2022-10-17T00:03:33.008Z,16.60
2022-10-17T00:08:35.119Z,16.50
2022-10-17T00:13:34.210Z,16.41
2022-10-17T00:18:36.296Z,16.31
2022-10-17T00:23:36.417Z,16.30
2022-10-17T00:28:35.526Z,16.27
2022-10-17T00:33:36.659Z,15.93
2022-10-17T00:38:38.738Z,15.21
2022-10-17T00:43:37.994Z,14.61
2022-10-17T00:48:39.138Z,13.99
2022-10-17T00:53:40.304Z,14.07
2022-10-17T00:58:41.463Z,14.24
2022-10-17T01:03:42.602Z,14.68
2022-10-17T01:08:44.096Z,15.12
2022-10-17T01:13:43.268Z,15.60
2022-10-17T01:18:44.322Z,16.00
2022-10-17T01:23:46.465Z,16.44
2022-10-17T01:28:45.661Z,16.41
2022-10-17T01:33:46.887Z,16.22
2022-10-17T01:38:48.142Z,16.09
2022-10-17T01:43:50.233Z,16.01
2022-10-17T01:48:49.405Z,15.85
2022-10-17T01:53:50.535Z,15.82
2022-10-17T01:58:51.657Z,15.78
2022-10-17T02:03:52.779Z,15.70
2022-10-17T02:08:53.866Z,16.15
2022-10-17T02:13:54.945Z,16.09
2022-10-17T02:18:57.138Z,15.97
2022-10-17T02:23:56.337Z,15.97
2022-10-17T02:28:58.438Z,15.92
2022-10-17T02:33:57.561Z,15.81
2022-10-17T02:38:58.769Z,15.85
2022-10-17T02:44:02.268Z,15.92
2022-10-17T02:48:59.613Z,15.97
2022-10-17T02:54:00.805Z,15.99
2022-10-17T02:59:02.009Z,15.88
2022-10-17T03:04:03.147Z,15.76
2022-10-17T03:09:04.261Z,15.61
2022-10-17T03:14:06.377Z,15.49
2022-10-17T03:19:05.484Z,15.33
2022-10-17T03:24:07.569Z,15.24
2022-10-17T03:29:06.782Z,15.01
2022-10-17T03:34:07.881Z,14.13
2022-10-17T03:39:09.107Z,13.76
2022-10-17T03:44:10.201Z,13.61
2022-10-17T03:49:12.276Z,13.37
2022-10-17T03:54:11.501Z,13.36
2022-10-17T03:59:12.601Z,13.30
2022-10-17T04:04:13.692Z,13.30
2022-10-17T04:09:14.814Z,13.07
2022-10-17T04:14:16.049Z,12.78
2022-10-17T04:19:17.227Z,12.54
2022-10-17T04:24:19.327Z,12.46
2022-10-17T04:29:18.402Z,12.33
2022-10-17T04:34:19.676Z,12.19
2022-10-17T04:39:20.834Z,12.06
2022-10-17T04:44:21.980Z,11.54
2022-10-17T04:49:23.075Z,11.41
2022-10-17T04:54:24.166Z,11.35
2022-10-17T04:59:25.256Z,11.27
2022-10-17T05:04:26.418Z,11.13
2022-10-17T05:09:27.616Z,10.96
2022-10-17T05:14:28.713Z,10.92
2022-10-17T05:19:30.010Z,10.84
2022-10-17T05:24:30.194Z,10.74
2022-10-17T05:29:31.335Z,10.60
2022-10-17T05:34:33.429Z,10.58
2022-10-17T05:39:32.516Z,10.58
2022-10-17T05:44:34.625Z,10.43
2022-10-17T05:49:45.046Z,10.43
2022-10-17T05:54:34.650Z,10.30
2022-10-17T05:59:34.131Z,10.17
2022-10-17T06:04:33.325Z,10.51
2022-10-17T06:09:34.578Z,10.59
2022-10-17T06:14:36.780Z,10.53
2022-10-17T06:19:36.513Z,10.77
2022-10-17T06:24:35.820Z,10.71
2022-10-17T06:29:37.022Z,10.43
2022-10-17T06:34:38.286Z,10.73
2022-10-17T06:39:39.486Z,11.28
2022-10-17T06:44:40.605Z,11.80
2022-10-17T06:49:41.863Z,11.97
2022-10-17T06:54:42.998Z,12.41
2022-10-17T06:59:44.136Z,13.14
2022-10-17T07:04:45.465Z,14.28
2022-10-17T07:09:46.592Z,15.23
2022-10-17T07:14:47.910Z,15.85
2022-10-17T07:19:49.075Z,16.18
2022-10-17T07:29:51.408Z,16.80
2022-10-17T07:34:52.599Z,16.96
2022-10-17T07:39:53.791Z,17.17
2022-10-17T07:44:55.004Z,17.46
2022-10-17T07:49:56.178Z,17.67
2022-10-17T07:54:58.275Z,17.92
2022-10-17T07:59:57.351Z,18.13
2022-10-17T08:04:59.449Z,18.33
2022-10-17T08:09:58.658Z,18.55
2022-10-17T08:14:59.782Z,18.65
2022-10-17T08:20:00.875Z,18.73
2022-10-17T08:25:02.959Z,18.99
2022-10-17T08:30:02.056Z,18.76
2022-10-17T08:35:03.166Z,17.66
2022-10-17T08:40:05.326Z,17.48
2022-10-17T08:45:04.415Z,17.63
2022-10-17T08:50:07.631Z,17.92
2022-10-17T08:55:07.757Z,18.17
2022-10-17T09:00:06.873Z,18.13
2022-10-17T09:05:08.990Z,18.29
2022-10-17T09:10:08.099Z,18.54
2022-10-17T09:15:09.213Z,18.90
2022-10-17T09:20:10.349Z,18.94
2022-10-17T09:25:12.524Z,18.94
2022-10-17T09:30:17.196Z,18.82
2022-10-17T09:35:13.747Z,18.98
2022-10-17T09:40:12.854Z,19.13
2022-10-17T09:45:14.985Z,19.38
2022-10-17T09:50:14.112Z,19.58
2022-10-17T09:55:15.211Z,19.50
2022-10-17T10:00:17.324Z,20.02
2022-10-17T10:05:16.409Z,20.27
2022-10-17T10:10:17.505Z,19.93
2022-10-17T10:15:19.619Z,20.09
2022-10-17T10:20:18.728Z,20.10
2022-10-17T10:25:19.817Z,20.08
2022-10-17T10:30:21.909Z,19.86
2022-10-17T10:35:22.026Z,19.68
2022-10-17T10:40:22.121Z,19.83
2022-10-17T10:45:43.199Z,20.12
2022-10-17T10:50:22.140Z,20.23
2022-10-17T10:55:21.294Z,20.09
2022-10-17T11:00:23.428Z,20.27
2022-10-17T11:05:22.496Z,20.47
2022-10-17T11:10:23.622Z,20.53
2022-10-17T11:15:25.843Z,20.54
2022-10-17T11:20:25.993Z,20.90
2022-10-17T11:25:25.085Z,20.43
2022-10-17T11:30:26.215Z,20.33
2022-10-17T11:35:28.319Z,20.18
2022-10-17T11:40:27.432Z,20.02
2022-10-17T11:45:28.523Z,20.38
2022-10-17T11:55:29.572Z,20.59
2022-10-17T12:00:30.684Z,20.61
2022-10-17T12:05:32.052Z,20.42
2022-10-17T12:10:33.149Z,20.83
2022-10-17T12:15:34.233Z,21.04
2022-10-17T12:20:35.390Z,20.69
2022-10-17T12:25:36.522Z,20.79
2022-10-17T12:30:38.622Z,21.02
2022-10-17T12:35:37.737Z,21.32
2022-10-17T12:40:38.842Z,21.71
2022-10-17T12:45:40.957Z,21.79
2022-10-17T12:50:41.071Z,21.98
2022-10-17T12:55:40.169Z,21.59
2022-10-17T13:00:49.869Z,21.39
2022-10-17T13:05:44.245Z,21.38
2022-10-17T13:10:47.057Z,21.29
2022-10-17T13:15:43.088Z,21.42
2022-10-17T13:20:44.189Z,21.60
2022-10-17T13:25:45.331Z,21.74
2022-10-17T13:30:49.578Z,21.83
2022-10-17T13:36:02.596Z,21.74
2022-10-17T13:40:50.248Z,21.92
2022-10-17T13:45:47.557Z,21.91
2022-10-17T13:50:49.660Z,21.82
2022-10-17T13:56:03.595Z,21.78
2022-10-17T14:00:51.800Z,21.66
2022-10-17T14:05:51.943Z,21.72
2022-10-17T14:10:51.038Z,21.64
2022-10-17T14:15:52.167Z,21.64
2022-10-17T14:25:54.251Z,21.66
2022-10-17T14:30:57.142Z,21.76
2022-10-17T14:35:54.889Z,21.71
2022-10-17T14:41:04.797Z,21.79
2022-10-17T14:45:55.968Z,21.98
2022-10-17T14:50:57.086Z,21.88
2022-10-17T14:55:59.208Z,21.53
2022-10-17T15:00:58.438Z,21.16
2022-10-17T15:05:59.660Z,21.27
2022-10-17T15:11:00.803Z,21.24
2022-10-17T15:16:01.935Z,21.26
2022-10-17T15:21:05.225Z,21.27
2022-10-17T15:26:03.763Z,21.02
2022-10-17T15:31:05.987Z,20.98
2022-10-17T15:36:05.072Z,21.01
2022-10-17T15:41:07.162Z,20.81
2022-10-17T15:46:06.271Z,20.69
2022-10-17T15:51:07.383Z,20.65
2022-10-17T15:56:09.504Z,20.39
2022-10-17T16:01:08.799Z,20.25
2022-10-17T16:06:13.421Z,20.00
2022-10-17T16:11:11.394Z,20.08
2022-10-17T16:16:13.113Z,19.95
2022-10-17T16:21:12.199Z,19.63
2022-10-17T16:26:13.297Z,19.32
2022-10-17T16:31:14.655Z,18.98
2022-10-17T16:36:15.827Z,18.65
2022-10-17T16:41:17.975Z,18.36
2022-10-17T16:46:17.072Z,18.10
2022-10-17T16:51:18.282Z,17.67
2022-10-17T16:56:20.722Z,17.43
2022-10-17T17:01:20.894Z,17.36
2022-10-17T17:06:20.122Z,17.15
2022-10-17T17:11:21.348Z,16.98
2022-10-17T17:16:22.778Z,16.88
2022-10-17T17:21:22.356Z,16.67
2022-10-17T17:26:25.525Z,16.73
2022-10-17T17:31:23.025Z,16.58
2022-10-17T17:36:22.288Z,16.48
2022-10-17T17:41:24.324Z,16.27
2022-10-17T17:46:23.574Z,15.88
2022-10-17T17:51:29.033Z,15.70
2022-10-17T17:56:25.500Z,15.60
2022-10-17T18:01:25.112Z,15.46
2022-10-17T18:06:25.647Z,15.36
2022-10-17T18:11:26.097Z,15.42
2022-10-17T18:16:26.484Z,15.27
2022-10-17T18:21:25.809Z,15.02
2022-10-17T18:26:28.277Z,14.93
2022-10-17T18:31:28.740Z,14.88
2022-10-17T18:36:28.259Z,14.98
2022-10-17T18:41:27.789Z,14.91
2022-10-17T18:46:28.230Z,14.75
2022-10-17T18:51:27.838Z,14.69
2022-10-17T18:56:27.276Z,14.74
2022-10-17T19:01:28.534Z,14.68
2022-10-17T19:06:29.897Z,14.67
2022-10-17T19:11:31.437Z,14.61
2022-10-17T19:16:30.695Z,14.61
2022-10-17T19:21:32.033Z,14.49
2022-10-17T19:26:33.177Z,14.49
2022-10-17T19:31:34.332Z,14.47
2022-10-17T19:36:36.721Z,14.24
2022-10-17T19:41:35.918Z,14.21
2022-10-17T19:46:37.036Z,14.02
2022-10-17T19:51:38.413Z,13.95
2022-10-17T19:56:37.747Z,14.27
2022-10-17T20:01:39.302Z,14.19
2022-10-17T20:06:38.488Z,14.19
2022-10-17T20:11:41.866Z,13.88
2022-10-17T20:16:42.087Z,13.91
2022-10-17T20:21:42.193Z,13.81
2022-10-17T20:26:42.298Z,13.59
2022-10-17T20:31:44.469Z,13.67
2022-10-17T20:36:42.997Z,13.70
2022-10-17T20:41:42.177Z,13.61
2022-10-17T20:46:52.914Z,13.47
2022-10-17T20:51:43.558Z,13.30
2022-10-17T20:56:45.698Z,13.06
2022-10-17T21:01:44.847Z,12.95
2022-10-17T21:06:46.113Z,12.89
2022-10-17T21:11:47.410Z,12.99
2022-10-17T21:16:48.525Z,12.96
2022-10-17T21:21:50.621Z,13.00
2022-10-17T21:26:49.721Z,12.92
2022-10-17T21:31:51.827Z,12.67
2022-10-17T21:36:51.071Z,12.66
2022-10-17T21:41:53.184Z,12.71
2022-10-17T21:46:52.422Z,12.56
2022-10-17T21:51:54.508Z,12.71
2022-10-17T21:56:53.791Z,12.77
2022-10-17T22:01:54.908Z,12.70
2022-10-17T22:06:57.052Z,12.77
2022-10-17T22:11:56.259Z,12.66
2022-10-17T22:16:58.352Z,12.60
2022-10-17T22:21:58.454Z,12.57
2022-10-17T22:26:57.607Z,12.56
2022-10-17T22:31:58.754Z,12.46
2022-10-17T22:36:59.992Z,12.62
2022-10-17T22:42:01.220Z,12.57
2022-10-17T22:47:02.384Z,12.49
2022-10-17T22:52:03.554Z,12.62
2022-10-17T22:57:05.662Z,12.64
2022-10-17T23:02:04.922Z,12.69
2022-10-17T23:07:06.013Z,12.64
2022-10-17T23:12:07.170Z,12.79
2022-10-17T23:17:08.320Z,12.78
2022-10-17T23:22:09.528Z,12.82
2022-10-17T23:27:11.687Z,12.79
2022-10-17T23:32:10.949Z,12.51
2022-10-17T23:37:12.290Z,12.41
2022-10-17T23:42:13.467Z,12.46
2022-10-17T23:47:14.647Z,12.44
2022-10-17T23:52:15.742Z,12.31
2022-10-17T23:57:16.940Z,12.24
